Olovjannaja, Russia
Current Conditions -  °F | °C
As of 1:00 AM on Sunday 23 Nov 2014 (Local Time) from UIAA Reporting Station
Haze Haze  
Wind Chill:   Ceiling: 20000
Heat Index:   Visibility: 3mi
Dew Point: -4°   Wind: 0mph
Humidity: 85%   Direction: NA
Pressure: 29.91"   Gusts: NA
Location:  50.95°N, 115.57°E
Report Text: UIAA 221600Z 00000MPS 5000 BR BKN200 M18/M20 Q1013 NOSIG RMKQFE701 29CLRD70
Loading
Personal Weather Stations






























Interactive Weather Map New forecast layout! Learn more

10-Day Weather Forecast

Advertisements
Track Severe Weather on mobile